createdAt,value
2023-02-12T00:00:27.088Z,73.20
2023-02-12T00:02:55.234Z,59.87
2023-02-12T00:05:24.976Z,67.30
2023-02-12T00:07:53.123Z,60.67
2023-02-12T00:10:21.457Z,67.40
2023-02-12T00:12:49.703Z,64.33
2023-02-12T00:15:17.871Z,61.87
2023-02-12T00:17:46.001Z,67.47
2023-02-12T00:20:14.219Z,63.87
2023-02-12T00:22:43.756Z,61.37
2023-02-12T00:25:13.845Z,67.53
2023-02-12T00:27:42.008Z,67.63
2023-02-12T00:30:10.486Z,67.70
2023-02-12T00:32:38.657Z,69.17
2023-02-12T00:35:06.983Z,68.77
2023-02-12T00:37:35.161Z,67.10
2023-02-12T00:40:05.337Z,70.73
2023-02-12T00:42:33.570Z,66.47
2023-02-12T00:45:01.734Z,69.47
2023-02-12T00:47:29.874Z,69.27
2023-02-12T00:49:58.011Z,67.17
2023-02-12T00:52:26.184Z,69.40
2023-02-12T00:54:54.316Z,68.20
2023-02-12T00:57:23.826Z,70.20
2023-02-12T00:59:51.996Z,73.53
2023-02-12T01:02:20.220Z,69.93
2023-02-12T01:04:48.401Z,68.70
2023-02-12T01:07:16.617Z,69.00
2023-02-12T01:09:44.761Z,65.47
2023-02-12T01:12:12.946Z,72.67
2023-02-12T01:14:42.432Z,73.10
2023-02-12T01:17:11.088Z,72.37
2023-02-12T01:19:39.252Z,70.77
2023-02-12T01:22:07.413Z,74.27
2023-02-12T01:24:35.535Z,74.17
2023-02-12T01:27:03.672Z,67.43
2023-02-12T01:29:31.873Z,68.80
2023-02-12T01:32:01.456Z,64.77
2023-02-12T01:34:29.698Z,69.63
2023-02-12T01:36:57.827Z,67.30
2023-02-12T01:39:25.961Z,72.97
2023-02-12T01:41:54.077Z,69.53
2023-02-12T01:44:23.186Z,71.80
2023-02-12T01:46:52.060Z,68.10
2023-02-12T01:49:23.838Z,67.57
2023-02-12T01:51:53.675Z,62.50
2023-02-12T01:54:22.572Z,73.17
2023-02-12T01:56:51.001Z,74.13
2023-02-12T01:59:21.119Z,62.43
2023-02-12T02:01:49.383Z,66.23
2023-02-12T02:04:18.777Z,61.73
2023-02-12T02:06:50.588Z,64.50
2023-02-12T02:09:20.374Z,60.17
2023-02-12T02:12:06.376Z,67.07
2023-02-12T02:14:34.663Z,65.87
2023-02-12T02:17:18.290Z,56.73
2023-02-12T02:19:56.810Z,62.93
2023-02-12T02:22:29.889Z,64.20
2023-02-12T02:25:21.825Z,60.60
2023-02-12T02:27:59.121Z,61.73
2023-02-12T02:30:33.225Z,60.63
2023-02-12T02:33:08.651Z,60.17
2023-02-12T02:35:40.676Z,63.67
2023-02-12T02:38:12.530Z,60.30
2023-02-12T02:40:43.320Z,60.27
2023-02-12T02:43:13.008Z,60.53
2023-02-12T02:45:44.536Z,57.73
2023-02-12T02:48:16.544Z,65.27
2023-02-12T02:50:48.493Z,59.47
2023-02-12T02:53:19.215Z,62.60
2023-02-12T02:55:49.405Z,59.80
2023-02-12T02:58:19.576Z,60.63
2023-02-12T03:00:50.619Z,65.57
2023-02-12T03:03:20.654Z,53.77
2023-02-12T03:05:51.112Z,55.63
2023-02-12T03:08:24.187Z,60.47
2023-02-12T03:10:54.786Z,60.17
2023-02-12T03:13:24.797Z,64.03
2023-02-12T03:15:57.305Z,59.17
2023-02-12T03:18:28.078Z,58.60
2023-02-12T03:20:59.888Z,60.07
2023-02-12T03:23:29.466Z,59.57
2023-02-12T03:25:59.556Z,58.83
2023-02-12T03:28:29.569Z,60.67
2023-02-12T03:31:04.230Z,62.40
2023-02-12T03:33:37.633Z,61.73
2023-02-12T03:36:09.659Z,58.13
2023-02-12T03:38:39.248Z,59.07
2023-02-12T03:41:10.786Z,53.80
2023-02-12T03:43:45.053Z,58.73
2023-02-12T03:46:19.301Z,62.03
2023-02-12T03:48:51.169Z,56.07
2023-02-12T03:51:21.934Z,57.50
2023-02-12T03:53:50.937Z,57.97
2023-02-12T03:56:20.878Z,56.10
2023-02-12T03:58:49.041Z,58.47
2023-02-12T04:01:19.084Z,56.33
2023-02-12T04:03:47.277Z,57.63
2023-02-12T04:06:22.933Z,58.63
2023-02-12T04:08:51.309Z,57.63
2023-02-12T04:11:23.642Z,55.30
2023-02-12T04:13:59.370Z,53.77
2023-02-12T04:16:31.650Z,53.57
2023-02-12T04:19:00.397Z,59.10
2023-02-12T04:21:38.305Z,55.03
2023-02-12T04:24:11.382Z,60.00
2023-02-12T04:26:44.274Z,56.00
2023-02-12T04:29:19.090Z,57.90
2023-02-12T04:31:51.122Z,58.60
2023-02-12T04:34:21.219Z,58.70
2023-02-12T04:36:52.341Z,57.40
2023-02-12T04:39:23.010Z,58.80
2023-02-12T04:41:51.285Z,52.97
2023-02-12T04:44:20.725Z,58.13
2023-02-12T04:46:50.442Z,57.43
2023-02-12T04:49:19.337Z,51.70
2023-02-12T04:51:48.032Z,52.70
2023-02-12T04:54:16.655Z,55.30
2023-02-12T04:56:44.925Z,50.07
2023-02-12T04:59:13.251Z,56.47
2023-02-12T05:01:41.861Z,59.37
2023-02-12T05:04:12.397Z,55.63
2023-02-12T05:06:40.945Z,56.03
2023-02-12T05:09:09.914Z,56.87
2023-02-12T05:11:38.036Z,57.70
2023-02-12T05:14:06.200Z,54.10
2023-02-12T05:16:34.339Z,57.90
2023-02-12T05:19:02.534Z,57.10
2023-02-12T05:21:32.046Z,53.37
2023-02-12T05:24:00.186Z,63.20
2023-02-12T05:26:28.333Z,55.43
2023-02-12T05:28:56.689Z,62.93
2023-02-12T05:31:25.017Z,49.80
2023-02-12T05:33:53.260Z,58.33
2023-02-12T05:36:22.516Z,61.30
2023-02-12T05:38:52.568Z,57.57
2023-02-12T05:41:22.083Z,62.87
2023-02-12T05:43:50.389Z,65.03
2023-02-12T05:46:19.050Z,63.53
2023-02-12T05:48:47.738Z,62.00
2023-02-12T05:51:17.195Z,56.73
2023-02-12T05:53:45.339Z,63.53
2023-02-12T05:56:15.934Z,59.37
2023-02-12T05:58:45.571Z,60.93
2023-02-12T06:01:14.725Z,59.77
2023-02-12T06:03:43.296Z,61.57
2023-02-12T06:06:11.548Z,60.83
2023-02-12T06:08:39.913Z,55.40
2023-02-12T06:11:09.331Z,62.63
2023-02-12T06:13:38.802Z,55.90
2023-02-12T06:16:07.528Z,61.23
2023-02-12T06:18:37.203Z,64.80
2023-02-12T06:21:05.523Z,62.43
2023-02-12T06:23:33.687Z,60.70
2023-02-12T06:26:01.849Z,55.20
2023-02-12T06:28:30.149Z,60.13
2023-02-12T06:30:59.786Z,57.13
2023-02-12T06:33:27.997Z,51.87
2023-02-12T06:35:56.565Z,55.93
2023-02-12T06:38:24.945Z,51.80
2023-02-12T06:40:53.105Z,59.90
2023-02-12T06:43:21.228Z,57.47
2023-02-12T06:45:49.373Z,51.07
2023-02-12T06:48:18.889Z,54.83
2023-02-12T06:50:47.053Z,50.73
2023-02-12T06:53:15.212Z,54.80
2023-02-12T06:55:43.428Z,52.53
2023-02-12T06:58:11.557Z,54.07
2023-02-12T07:00:39.739Z,48.17
2023-02-12T07:03:07.907Z,48.60
2023-02-12T07:05:37.825Z,43.53
2023-02-12T07:08:05.999Z,47.53
2023-02-12T07:10:34.121Z,44.30
2023-02-12T07:13:02.258Z,50.43
2023-02-12T07:15:30.404Z,47.67
2023-02-12T07:17:58.530Z,53.93
2023-02-12T07:20:26.658Z,54.57
2023-02-12T07:22:56.183Z,59.43
2023-02-12T07:25:24.329Z,51.93
2023-02-12T07:27:52.500Z,43.80
2023-02-12T07:30:20.938Z,50.23
2023-02-12T07:32:49.083Z,48.47
2023-02-12T07:35:17.368Z,43.17
2023-02-12T07:37:45.488Z,39.83
2023-02-12T07:40:15.350Z,44.67
2023-02-12T07:42:43.476Z,42.00
2023-02-12T07:45:11.949Z,43.93
2023-02-12T07:47:40.711Z,46.53
2023-02-12T07:50:09.233Z,43.13
2023-02-12T07:52:37.400Z,51.07
2023-02-12T07:55:05.644Z,46.90
2023-02-12T07:57:36.127Z,41.23
2023-02-12T08:00:05.274Z,44.63
2023-02-12T08:02:33.572Z,43.43
2023-02-12T08:05:01.709Z,43.60
2023-02-12T08:07:29.864Z,41.90
2023-02-12T08:09:58.073Z,39.03
2023-02-12T08:12:26.318Z,39.17
2023-02-12T08:14:55.827Z,39.77
2023-02-12T08:17:23.967Z,40.83
2023-02-12T08:19:52.129Z,44.20
2023-02-12T08:22:20.643Z,44.10
2023-02-12T08:24:49.084Z,41.83
2023-02-12T08:27:17.235Z,37.13
2023-02-12T08:29:45.412Z,43.00
2023-02-12T08:32:16.512Z,37.47
2023-02-12T08:34:44.665Z,34.07
2023-02-12T08:37:12.914Z,37.23
2023-02-12T08:39:41.049Z,40.87
2023-02-12T08:42:09.182Z,33.97
2023-02-12T08:44:37.806Z,37.40
2023-02-12T08:47:07.079Z,36.50
2023-02-12T08:49:36.610Z,30.43
2023-02-12T08:52:04.841Z,34.50
2023-02-12T08:54:33.432Z,31.87
2023-02-12T08:57:03.069Z,33.77
2023-02-12T08:59:31.802Z,31.47
2023-02-12T09:02:00.499Z,33.73
2023-02-12T09:04:29.579Z,31.83
2023-02-12T09:06:59.151Z,33.80
2023-02-12T09:09:27.315Z,32.47
2023-02-12T09:11:55.561Z,33.43
2023-02-12T09:14:24.903Z,31.80
2023-02-12T09:16:53.804Z,30.70
2023-02-12T09:19:22.177Z,32.03
2023-02-12T09:21:55.254Z,36.10
2023-02-12T09:24:25.572Z,35.87
2023-02-12T09:26:53.806Z,33.77
2023-02-12T09:29:21.964Z,28.90
2023-02-12T09:31:50.216Z,31.33
2023-02-12T09:34:18.456Z,30.50
2023-02-12T09:36:46.610Z,34.73
2023-02-12T09:39:14.737Z,31.17
2023-02-12T09:41:54.299Z,32.13
2023-02-12T09:44:24.332Z,33.23
2023-02-12T09:46:55.033Z,30.77
2023-02-12T09:49:28.218Z,30.87
2023-02-12T09:51:57.002Z,30.93
2023-02-12T09:54:27.224Z,33.80
2023-02-12T09:57:00.559Z,31.03
2023-02-12T09:59:32.295Z,35.00
2023-02-12T10:02:00.856Z,28.63
2023-02-12T10:04:29.775Z,32.20
2023-02-12T10:07:03.518Z,30.87
2023-02-12T10:09:44.183Z,34.00
2023-02-12T10:12:18.623Z,33.57
2023-02-12T10:15:01.645Z,40.80
2023-02-12T10:17:35.147Z,38.80
2023-02-12T10:20:13.654Z,37.53
2023-02-12T10:22:56.055Z,39.47
2023-02-12T10:25:28.090Z,36.93
2023-02-12T10:27:58.536Z,38.67
2023-02-12T10:30:28.932Z,37.53
2023-02-12T10:33:00.674Z,42.07
2023-02-12T10:35:29.051Z,40.40
2023-02-12T10:37:59.382Z,36.70
2023-02-12T10:40:29.987Z,39.50
2023-02-12T10:43:00.045Z,42.00
2023-02-12T10:45:30.923Z,36.50
2023-02-12T10:48:05.835Z,41.50
2023-02-12T10:50:38.851Z,39.67
2023-02-12T10:53:06.990Z,42.10
2023-02-12T10:55:36.732Z,39.30
2023-02-12T10:58:07.167Z,42.47
2023-02-12T11:00:36.713Z,38.40
2023-02-12T11:03:07.075Z,40.33
2023-02-12T11:05:36.554Z,43.10
2023-02-12T11:08:05.379Z,41.00
2023-02-12T11:10:34.380Z,41.43
2023-02-12T11:13:03.136Z,42.67
2023-02-12T11:15:36.800Z,41.77
2023-02-12T11:18:07.423Z,47.47
2023-02-12T11:20:39.346Z,41.03
2023-02-12T11:23:08.690Z,41.80
2023-02-12T11:25:38.026Z,44.77
2023-02-12T11:28:17.123Z,42.47
2023-02-12T11:30:52.291Z,40.63
2023-02-12T11:33:38.925Z,44.83
2023-02-12T11:36:09.734Z,40.10
2023-02-12T11:38:39.437Z,41.53
2023-02-12T11:41:20.610Z,41.93
2023-02-12T11:43:48.844Z,39.57
2023-02-12T11:46:23.380Z,39.03
2023-02-12T11:48:52.945Z,38.53
2023-02-12T11:51:22.867Z,35.17
2023-02-12T11:53:52.660Z,39.23
2023-02-12T11:56:21.559Z,39.30
2023-02-12T11:58:50.185Z,42.17
2023-02-12T12:01:21.125Z,41.10
2023-02-12T12:03:57.710Z,45.67
2023-02-12T12:06:34.661Z,42.70
2023-02-12T12:09:06.137Z,39.67
2023-02-12T12:11:38.096Z,48.80
2023-02-12T12:14:10.784Z,41.87
2023-02-12T12:17:07.803Z,43.07
2023-02-12T12:19:55.745Z,43.80
2023-02-12T12:22:34.886Z,42.53
2023-02-12T12:25:07.253Z,43.47
2023-02-12T12:27:55.689Z,41.00
2023-02-12T12:30:24.926Z,43.50
2023-02-12T12:32:54.317Z,39.63
2023-02-12T12:35:40.953Z,41.93
2023-02-12T12:38:14.105Z,37.90
2023-02-12T12:40:51.992Z,39.10
2023-02-12T12:43:24.271Z,37.87
2023-02-12T12:45:59.381Z,40.67
2023-02-12T12:48:34.361Z,36.30
2023-02-12T12:51:08.820Z,38.17
2023-02-12T12:53:43.129Z,39.27
2023-02-12T12:56:14.975Z,36.37
2023-02-12T12:58:51.810Z,40.50
2023-02-12T13:01:34.874Z,37.33
2023-02-12T13:04:12.662Z,41.23
2023-02-12T13:06:49.190Z,39.70
2023-02-12T13:09:24.445Z,43.20
2023-02-12T13:12:00.556Z,38.67
2023-02-12T13:14:37.140Z,36.83
2023-02-12T13:17:09.158Z,48.60
2023-02-12T13:19:44.058Z,45.50
2023-02-12T13:22:18.712Z,45.67
2023-02-12T13:24:49.169Z,45.63
2023-02-12T13:27:19.338Z,49.70
2023-02-12T13:29:50.154Z,43.10
2023-02-12T13:32:22.242Z,43.57
2023-02-12T13:34:50.747Z,46.70
2023-02-12T13:37:21.654Z,46.80
2023-02-12T13:39:50.953Z,49.97
2023-02-12T13:42:26.933Z,46.90
2023-02-12T13:44:58.832Z,45.03
2023-02-12T13:47:31.670Z,42.90
2023-02-12T13:50:02.813Z,50.23
2023-02-12T13:52:36.076Z,46.97
2023-02-12T13:55:14.681Z,47.63
2023-02-12T13:57:42.825Z,38.70
2023-02-12T14:00:25.860Z,47.17
2023-02-12T14:02:54.212Z,47.23
2023-02-12T14:05:27.036Z,42.47
2023-02-12T14:07:57.904Z,50.00
2023-02-12T14:10:28.296Z,45.40
2023-02-12T14:12:58.329Z,48.33
2023-02-12T14:15:30.025Z,44.93
2023-02-12T14:18:05.851Z,43.33
2023-02-12T14:20:34.786Z,40.17
2023-02-12T14:23:20.852Z,42.07
2023-02-12T14:25:57.723Z,46.17
2023-02-12T14:28:29.119Z,42.00
2023-02-12T14:31:21.216Z,41.77
2023-02-12T14:33:50.324Z,43.53
2023-02-12T14:36:20.005Z,45.30
2023-02-12T14:39:03.080Z,42.30
2023-02-12T14:41:38.438Z,41.60
2023-02-12T14:44:27.196Z,44.00
2023-02-12T14:46:56.195Z,45.50
2023-02-12T14:49:26.520Z,45.53
2023-02-12T14:51:57.125Z,42.93
2023-02-12T14:54:29.540Z,42.57
2023-02-12T14:57:01.443Z,48.90
2023-02-12T14:59:30.842Z,43.97
2023-02-12T15:02:00.536Z,44.20
2023-02-12T15:04:29.845Z,44.37
2023-02-12T15:06:59.665Z,49.03
2023-02-12T15:09:31.084Z,45.03
2023-02-12T15:12:04.255Z,44.53
2023-02-12T15:14:33.609Z,43.33
2023-02-12T15:17:04.700Z,44.40
2023-02-12T15:19:36.128Z,41.80
2023-02-12T15:22:04.636Z,42.27
2023-02-12T15:24:32.770Z,42.10
2023-02-12T15:27:02.320Z,51.23
2023-02-12T15:29:32.959Z,49.67
2023-02-12T15:32:02.477Z,56.07
2023-02-12T15:34:33.316Z,46.30
2023-02-12T15:37:02.472Z,52.67
2023-02-12T15:39:43.450Z,53.13
2023-02-12T15:42:26.492Z,56.20
2023-02-12T15:45:03.160Z,51.53
2023-02-12T15:47:31.309Z,53.50
2023-02-12T15:50:01.396Z,52.03
2023-02-12T15:52:34.748Z,54.90
2023-02-12T15:55:03.102Z,50.50
2023-02-12T15:57:32.869Z,56.67
2023-02-12T16:00:04.855Z,52.40
2023-02-12T16:02:34.329Z,58.80
2023-02-12T16:05:03.813Z,57.73
2023-02-12T16:07:34.994Z,55.33
2023-02-12T16:10:03.954Z,50.93
2023-02-12T16:12:36.839Z,50.03
2023-02-12T16:15:05.716Z,48.43
2023-02-12T16:17:35.283Z,55.03
2023-02-12T16:20:06.489Z,50.70
2023-02-12T16:22:35.683Z,47.20
2023-02-12T16:25:04.304Z,50.50
2023-02-12T16:27:35.205Z,56.37
2023-02-12T16:30:04.928Z,47.53
2023-02-12T16:32:37.527Z,49.93
2023-02-12T16:35:08.129Z,49.80
2023-02-12T16:37:44.294Z,50.37
2023-02-12T16:40:21.361Z,47.57
2023-02-12T16:43:07.666Z,50.70
2023-02-12T16:45:40.363Z,51.40
2023-02-12T16:48:10.548Z,45.13
2023-02-12T16:50:40.277Z,52.73
2023-02-12T16:53:09.414Z,48.93
2023-02-12T16:55:37.575Z,48.27
2023-02-12T16:58:07.213Z,46.17
2023-02-12T17:00:35.390Z,46.57
2023-02-12T17:03:03.649Z,48.10
2023-02-12T17:05:31.843Z,49.60
2023-02-12T17:07:59.965Z,46.97
2023-02-12T17:10:28.095Z,47.13
2023-02-12T17:12:56.267Z,49.77
2023-02-12T17:15:30.150Z,50.20
2023-02-12T17:17:58.302Z,53.23
2023-02-12T17:20:26.559Z,47.43
2023-02-12T17:22:57.158Z,51.60
2023-02-12T17:25:25.639Z,46.63
2023-02-12T17:27:53.848Z,49.87
2023-02-12T17:30:22.166Z,49.90
2023-02-12T17:32:51.767Z,50.27
2023-02-12T17:35:20.082Z,48.33
2023-02-12T17:37:48.852Z,52.43
2023-02-12T17:40:17.738Z,49.13
2023-02-12T17:42:45.913Z,51.37
2023-02-12T17:45:14.068Z,53.77
2023-02-12T17:47:42.237Z,54.10
2023-02-12T17:50:13.986Z,48.83
2023-02-12T17:52:42.153Z,54.33
2023-02-12T17:55:11.389Z,47.37
2023-02-12T17:57:39.746Z,51.20
2023-02-12T18:00:08.786Z,51.10
2023-02-12T18:02:36.955Z,53.33
2023-02-12T18:05:05.151Z,50.97
2023-02-12T18:07:35.721Z,50.27
2023-02-12T18:10:05.141Z,50.73
2023-02-12T18:12:33.624Z,50.30
2023-02-12T18:15:02.573Z,51.70
2023-02-12T18:17:30.983Z,51.53
2023-02-12T18:19:59.364Z,48.23
2023-02-12T18:22:27.670Z,45.13
2023-02-12T18:24:57.575Z,53.00
2023-02-12T18:27:25.731Z,47.73
2023-02-12T18:29:53.892Z,47.97
2023-02-12T18:32:22.178Z,45.67
2023-02-12T18:34:50.339Z,47.40
2023-02-12T18:37:18.490Z,48.03
2023-02-12T18:39:46.761Z,47.80
2023-02-12T18:42:16.267Z,52.33
2023-02-12T18:44:44.403Z,44.57
2023-02-12T18:47:12.597Z,46.37
2023-02-12T18:49:40.796Z,47.40
2023-02-12T18:52:08.995Z,50.40
2023-02-12T18:54:37.192Z,45.93
2023-02-12T18:57:05.440Z,45.80
2023-02-12T18:59:34.945Z,47.10
2023-02-12T19:02:04.495Z,44.77
2023-02-12T19:04:33.227Z,47.03
2023-02-12T19:07:01.427Z,46.13
2023-02-12T19:09:29.678Z,47.10
2023-02-12T19:11:58.445Z,48.83
2023-02-12T19:14:27.617Z,45.43
2023-02-12T19:16:57.211Z,47.80
2023-02-12T19:19:25.565Z,47.30
2023-02-12T19:21:53.689Z,47.27
2023-02-12T19:24:21.947Z,47.93
2023-02-12T19:26:52.563Z,46.80
2023-02-12T19:29:20.774Z,45.70
2023-02-12T19:31:49.375Z,47.57
2023-02-12T19:34:20.122Z,43.20
2023-02-12T19:36:48.816Z,43.33
2023-02-12T19:39:18.733Z,51.93
2023-02-12T19:41:47.051Z,42.77
2023-02-12T19:44:18.926Z,42.20
2023-02-12T19:46:47.387Z,50.87
2023-02-12T19:49:16.407Z,43.93
2023-02-12T19:51:46.204Z,44.50
2023-02-12T19:54:15.248Z,40.97
2023-02-12T19:56:43.685Z,36.43
2023-02-12T19:59:13.232Z,38.93
2023-02-12T20:01:41.545Z,41.13
2023-02-12T20:04:09.740Z,38.87
2023-02-12T20:06:38.845Z,43.07
2023-02-12T20:09:08.803Z,39.93
2023-02-12T20:11:39.198Z,42.53
2023-02-12T20:14:07.851Z,45.00
2023-02-12T20:16:38.204Z,41.37
2023-02-12T20:19:08.418Z,40.73
2023-02-12T20:21:36.823Z,40.13
2023-02-12T20:24:05.466Z,46.77
2023-02-12T20:26:35.040Z,37.73
2023-02-12T20:29:05.195Z,49.27
2023-02-12T20:31:35.801Z,40.23
2023-02-12T20:34:05.224Z,43.97
2023-02-12T20:36:33.980Z,41.57
2023-02-12T20:39:02.529Z,45.30
2023-02-12T20:41:30.682Z,46.63
2023-02-12T20:44:01.374Z,49.73
2023-02-12T20:46:29.650Z,40.90
2023-02-12T20:48:58.323Z,44.33
2023-02-12T20:51:27.322Z,39.00
2023-02-12T20:53:56.225Z,41.23
2023-02-12T20:56:25.574Z,44.03
2023-02-12T20:58:54.055Z,40.97
2023-02-12T21:01:24.495Z,46.13
2023-02-12T21:03:53.685Z,42.17
2023-02-12T21:06:22.745Z,46.57
2023-02-12T21:08:51.575Z,40.30
2023-02-12T21:11:20.950Z,41.50
2023-02-12T21:13:59.017Z,46.10
2023-02-12T21:16:33.395Z,41.97
2023-02-12T21:19:01.939Z,34.73
2023-02-12T21:21:30.846Z,45.10
2023-02-12T21:23:59.711Z,44.37
2023-02-12T21:26:29.229Z,43.03
2023-02-12T21:28:58.160Z,42.20
2023-02-12T21:31:27.702Z,38.13
2023-02-12T21:33:58.296Z,40.23
2023-02-12T21:36:27.988Z,48.53
2023-02-12T21:38:56.898Z,42.07
2023-02-12T21:41:25.732Z,40.70
2023-02-12T21:43:54.569Z,38.93
2023-02-12T21:46:23.379Z,40.10
2023-02-12T21:48:52.204Z,39.17
2023-02-12T21:51:22.478Z,38.83
2023-02-12T21:53:51.262Z,36.10
2023-02-12T21:56:19.889Z,37.70
2023-02-12T21:58:48.254Z,35.63
2023-02-12T22:01:17.306Z,37.73
2023-02-12T22:03:45.910Z,43.33
2023-02-12T22:06:14.925Z,36.47
2023-02-12T22:08:44.411Z,33.23
2023-02-12T22:11:13.690Z,34.87
2023-02-12T22:13:42.279Z,37.27
2023-02-12T22:16:11.055Z,35.00
2023-02-12T22:18:39.705Z,32.37
2023-02-12T22:21:11.317Z,37.03
2023-02-12T22:23:41.358Z,32.13
2023-02-12T22:26:12.273Z,35.30
2023-02-12T22:28:41.400Z,39.00
2023-02-12T22:31:09.585Z,40.33
2023-02-12T22:33:37.730Z,39.67
2023-02-12T22:36:06.925Z,41.07
2023-02-12T22:38:35.121Z,37.07
2023-02-12T22:41:03.349Z,33.63
2023-02-12T22:43:33.249Z,38.13
2023-02-12T22:46:01.452Z,34.40
2023-02-12T22:48:30.234Z,33.23
2023-02-12T22:50:59.151Z,37.47
2023-02-12T22:53:29.154Z,33.93
2023-02-12T22:55:57.300Z,30.13
2023-02-12T22:58:25.420Z,33.27
2023-02-12T23:00:55.008Z,32.87
2023-02-12T23:03:23.195Z,33.30
2023-02-12T23:05:51.343Z,34.17
2023-02-12T23:08:19.469Z,31.23
2023-02-12T23:10:47.583Z,28.60
2023-02-12T23:13:29.034Z,28.87
2023-02-12T23:15:59.560Z,27.07
2023-02-12T23:18:27.864Z,27.50
2023-02-12T23:20:56.284Z,29.23
2023-02-12T23:23:24.621Z,31.67
2023-02-12T23:25:54.586Z,28.17
2023-02-12T23:28:23.104Z,25.80
2023-02-12T23:30:52.215Z,31.57
2023-02-12T23:33:21.831Z,30.70
2023-02-12T23:35:50.397Z,31.03
2023-02-12T23:38:18.898Z,31.23
2023-02-12T23:40:48.251Z,30.50
2023-02-12T23:43:16.425Z,26.00
2023-02-12T23:45:44.837Z,26.67
2023-02-12T23:48:13.352Z,31.43
2023-02-12T23:50:43.003Z,25.37
2023-02-12T23:53:11.301Z,26.17
2023-02-12T23:55:41.086Z,24.60
2023-02-12T23:58:09.291Z,28.77
